sensor_id;sensor_type;location;lat;lon;timestamp;P1;durP1;ratioP1;P2;durP2;ratioP2
67816;SDS011;54614;47.576;7.524;2024-01-10T00:02:13;4.67;;;3.63;;
67816;SDS011;54614;47.576;7.524;2024-01-10T00:04:39;4.83;;;3.50;;
67816;SDS011;54614;47.576;7.524;2024-01-10T00:07:05;6.10;;;3.93;;
67816;SDS011;54614;47.576;7.524;2024-01-10T00:09:31;5.07;;;3.70;;
67816;SDS011;54614;47.576;7.524;2024-01-10T00:11:56;5.53;;;3.90;;
67816;SDS011;54614;47.576;7.524;2024-01-10T00:14:22;4.83;;;3.80;;
67816;SDS011;54614;47.576;7.524;2024-01-10T00:16:48;5.63;;;4.00;;
67816;SDS011;54614;47.576;7.524;2024-01-10T00:19:13;4.70;;;3.80;;
67816;SDS011;54614;47.576;7.524;2024-01-10T00:21:39;5.13;;;3.60;;
67816;SDS011;54614;47.576;7.524;2024-01-10T00:24:05;5.00;;;3.80;;
67816;SDS011;54614;47.576;7.524;2024-01-10T00:26:31;6.30;;;3.90;;
67816;SDS011;54614;47.576;7.524;2024-01-10T00:28:56;5.00;;;3.60;;
67816;SDS011;54614;47.576;7.524;2024-01-10T00:31:22;4.50;;;3.77;;
67816;SDS011;54614;47.576;7.524;2024-01-10T00:33:48;5.17;;;3.90;;
67816;SDS011;54614;47.576;7.524;2024-01-10T00:36:13;5.00;;;3.73;;
67816;SDS011;54614;47.576;7.524;2024-01-10T00:38:40;6.23;;;3.87;;
67816;SDS011;54614;47.576;7.524;2024-01-10T00:41:05;6.03;;;3.83;;
67816;SDS011;54614;47.576;7.524;2024-01-10T00:43:32;5.17;;;3.67;;
67816;SDS011;54614;47.576;7.524;2024-01-10T00:45:57;5.70;;;4.07;;
67816;SDS011;54614;47.576;7.524;2024-01-10T00:48:23;6.93;;;3.87;;
67816;SDS011;54614;47.576;7.524;2024-01-10T00:50:49;6.63;;;4.07;;
67816;SDS011;54614;47.576;7.524;2024-01-10T00:53:15;7.63;;;4.03;;
67816;SDS011;54614;47.576;7.524;2024-01-10T00:55:41;5.37;;;4.10;;
67816;SDS011;54614;47.576;7.524;2024-01-10T00:58:06;5.77;;;3.70;;
67816;SDS011;54614;47.576;7.524;2024-01-10T01:00:32;5.63;;;4.00;;
67816;SDS011;54614;47.576;7.524;2024-01-10T01:02:58;7.67;;;3.63;;
67816;SDS011;54614;47.576;7.524;2024-01-10T01:05:24;5.73;;;3.77;;
67816;SDS011;54614;47.576;7.524;2024-01-10T01:07:49;5.20;;;3.60;;
67816;SDS011;54614;47.576;7.524;2024-01-10T01:10:15;5.10;;;3.70;;
67816;SDS011;54614;47.576;7.524;2024-01-10T01:12:41;5.00;;;3.90;;
67816;SDS011;54614;47.576;7.524;2024-01-10T01:15:07;4.97;;;3.83;;
67816;SDS011;54614;47.576;7.524;2024-01-10T01:17:33;4.60;;;3.70;;
67816;SDS011;54614;47.576;7.524;2024-01-10T01:19:59;6.70;;;3.83;;
67816;SDS011;54614;47.576;7.524;2024-01-10T01:22:25;5.50;;;3.90;;
67816;SDS011;54614;47.576;7.524;2024-01-10T01:24:51;4.63;;;3.77;;
67816;SDS011;54614;47.576;7.524;2024-01-10T01:27:17;5.30;;;3.93;;
67816;SDS011;54614;47.576;7.524;2024-01-10T01:29:43;4.67;;;3.70;;
67816;SDS011;54614;47.576;7.524;2024-01-10T01:32:08;6.20;;;3.70;;
67816;SDS011;54614;47.576;7.524;2024-01-10T01:34:34;5.03;;;3.77;;
67816;SDS011;54614;47.576;7.524;2024-01-10T01:37:00;4.27;;;3.40;;
67816;SDS011;54614;47.576;7.524;2024-01-10T01:39:26;5.03;;;3.80;;
67816;SDS011;54614;47.576;7.524;2024-01-10T01:41:51;5.70;;;3.93;;
67816;SDS011;54614;47.576;7.524;2024-01-10T01:44:17;6.60;;;4.10;;
67816;SDS011;54614;47.576;7.524;2024-01-10T01:46:43;4.90;;;3.70;;
67816;SDS011;54614;47.576;7.524;2024-01-10T01:49:11;6.47;;;3.93;;
67816;SDS011;54614;47.576;7.524;2024-01-10T01:51:37;7.80;;;3.63;;
67816;SDS011;54614;47.576;7.524;2024-01-10T01:54:06;5.30;;;3.80;;
67816;SDS011;54614;47.576;7.524;2024-01-10T01:56:34;4.80;;;3.60;;
67816;SDS011;54614;47.576;7.524;2024-01-10T01:59:02;4.67;;;3.80;;
67816;SDS011;54614;47.576;7.524;2024-01-10T02:01:29;5.50;;;3.87;;
67816;SDS011;54614;47.576;7.524;2024-01-10T02:03:56;4.57;;;3.50;;
67816;SDS011;54614;47.576;7.524;2024-01-10T02:06:22;4.37;;;3.53;;
67816;SDS011;54614;47.576;7.524;2024-01-10T02:08:48;4.37;;;3.57;;
67816;SDS011;54614;47.576;7.524;2024-01-10T02:11:14;4.70;;;3.60;;
67816;SDS011;54614;47.576;7.524;2024-01-10T02:13:40;5.47;;;3.93;;
67816;SDS011;54614;47.576;7.524;2024-01-10T02:16:06;4.80;;;3.97;;
67816;SDS011;54614;47.576;7.524;2024-01-10T02:18:34;5.27;;;3.80;;
67816;SDS011;54614;47.576;7.524;2024-01-10T02:21:00;5.53;;;3.83;;
67816;SDS011;54614;47.576;7.524;2024-01-10T02:23:26;5.37;;;4.17;;
67816;SDS011;54614;47.576;7.524;2024-01-10T02:25:52;4.73;;;3.77;;
67816;SDS011;54614;47.576;7.524;2024-01-10T02:28:18;5.00;;;3.73;;
67816;SDS011;54614;47.576;7.524;2024-01-10T02:30:44;6.10;;;4.00;;
67816;SDS011;54614;47.576;7.524;2024-01-10T02:33:10;4.77;;;3.70;;
67816;SDS011;54614;47.576;7.524;2024-01-10T02:35:35;5.20;;;3.70;;
67816;SDS011;54614;47.576;7.524;2024-01-10T02:38:01;5.17;;;3.80;;
67816;SDS011;54614;47.576;7.524;2024-01-10T02:40:29;5.40;;;4.10;;
67816;SDS011;54614;47.576;7.524;2024-01-10T02:42:55;6.43;;;4.20;;
67816;SDS011;54614;47.576;7.524;2024-01-10T02:45:20;4.77;;;3.67;;
67816;SDS011;54614;47.576;7.524;2024-01-10T02:47:46;5.13;;;3.77;;
67816;SDS011;54614;47.576;7.524;2024-01-10T02:50:12;5.43;;;3.87;;
67816;SDS011;54614;47.576;7.524;2024-01-10T02:52:38;5.33;;;3.90;;
67816;SDS011;54614;47.576;7.524;2024-01-10T02:55:04;5.03;;;3.90;;
67816;SDS011;54614;47.576;7.524;2024-01-10T02:57:30;5.53;;;4.20;;
67816;SDS011;54614;47.576;7.524;2024-01-10T02:59:55;5.07;;;3.90;;
67816;SDS011;54614;47.576;7.524;2024-01-10T03:02:21;4.97;;;3.83;;
67816;SDS011;54614;47.576;7.524;2024-01-10T03:04:48;5.57;;;3.90;;
67816;SDS011;54614;47.576;7.524;2024-01-10T03:07:15;4.57;;;3.60;;
67816;SDS011;54614;47.576;7.524;2024-01-10T03:09:40;6.77;;;4.10;;
67816;SDS011;54614;47.576;7.524;2024-01-10T03:12:06;4.27;;;3.70;;
67816;SDS011;54614;47.576;7.524;2024-01-10T03:14:32;6.13;;;3.87;;
67816;SDS011;54614;47.576;7.524;2024-01-10T03:16:59;4.80;;;4.10;;
67816;SDS011;54614;47.576;7.524;2024-01-10T03:19:25;5.20;;;3.73;;
67816;SDS011;54614;47.576;7.524;2024-01-10T03:21:51;5.73;;;4.30;;
67816;SDS011;54614;47.576;7.524;2024-01-10T03:24:16;5.40;;;4.03;;
67816;SDS011;54614;47.576;7.524;2024-01-10T03:26:42;4.73;;;3.80;;
67816;SDS011;54614;47.576;7.524;2024-01-10T03:29:08;5.97;;;3.97;;
67816;SDS011;54614;47.576;7.524;2024-01-10T03:31:34;4.53;;;3.90;;
67816;SDS011;54614;47.576;7.524;2024-01-10T03:33:59;4.30;;;3.73;;
67816;SDS011;54614;47.576;7.524;2024-01-10T03:36:25;6.70;;;4.13;;
67816;SDS011;54614;47.576;7.524;2024-01-10T03:38:51;5.37;;;3.90;;
67816;SDS011;54614;47.576;7.524;2024-01-10T03:41:18;5.67;;;3.87;;
67816;SDS011;54614;47.576;7.524;2024-01-10T03:43:45;4.90;;;3.90;;
67816;SDS011;54614;47.576;7.524;2024-01-10T03:46:12;6.03;;;4.17;;
67816;SDS011;54614;47.576;7.524;2024-01-10T03:48:39;5.67;;;4.00;;
67816;SDS011;54614;47.576;7.524;2024-01-10T03:51:13;4.80;;;3.50;;
67816;SDS011;54614;47.576;7.524;2024-01-10T03:53:43;6.70;;;4.10;;
67816;SDS011;54614;47.576;7.524;2024-01-10T03:56:10;5.87;;;4.20;;
67816;SDS011;54614;47.576;7.524;2024-01-10T03:58:37;5.70;;;4.00;;
67816;SDS011;54614;47.576;7.524;2024-01-10T04:01:09;6.07;;;4.17;;
67816;SDS011;54614;47.576;7.524;2024-01-10T04:03:35;5.43;;;3.90;;
67816;SDS011;54614;47.576;7.524;2024-01-10T04:06:01;5.43;;;4.10;;
67816;SDS011;54614;47.576;7.524;2024-01-10T04:08:28;6.33;;;4.57;;
67816;SDS011;54614;47.576;7.524;2024-01-10T04:10:54;5.27;;;3.80;;
67816;SDS011;54614;47.576;7.524;2024-01-10T04:13:20;5.17;;;4.13;;
67816;SDS011;54614;47.576;7.524;2024-01-10T04:15:46;7.90;;;4.20;;
67816;SDS011;54614;47.576;7.524;2024-01-10T04:18:11;5.77;;;4.40;;
67816;SDS011;54614;47.576;7.524;2024-01-10T04:20:37;5.73;;;4.30;;
67816;SDS011;54614;47.576;7.524;2024-01-10T04:23:03;5.80;;;4.20;;
67816;SDS011;54614;47.576;7.524;2024-01-10T04:25:29;5.10;;;4.10;;
67816;SDS011;54614;47.576;7.524;2024-01-10T04:27:55;5.47;;;4.07;;
67816;SDS011;54614;47.576;7.524;2024-01-10T04:30:22;5.63;;;4.40;;
67816;SDS011;54614;47.576;7.524;2024-01-10T04:32:48;6.03;;;4.20;;
67816;SDS011;54614;47.576;7.524;2024-01-10T04:35:14;6.73;;;4.30;;
67816;SDS011;54614;47.576;7.524;2024-01-10T04:37:40;6.67;;;4.27;;
67816;SDS011;54614;47.576;7.524;2024-01-10T04:40:06;5.13;;;4.00;;
67816;SDS011;54614;47.576;7.524;2024-01-10T04:42:32;5.27;;;4.20;;
67816;SDS011;54614;47.576;7.524;2024-01-10T04:44:58;6.97;;;4.20;;
67816;SDS011;54614;47.576;7.524;2024-01-10T04:47:23;6.47;;;4.30;;
67816;SDS011;54614;47.576;7.524;2024-01-10T04:49:49;5.80;;;4.20;;
67816;SDS011;54614;47.576;7.524;2024-01-10T04:52:15;5.80;;;4.47;;
67816;SDS011;54614;47.576;7.524;2024-01-10T04:54:40;9.60;;;4.53;;
67816;SDS011;54614;47.576;7.524;2024-01-10T04:57:06;6.33;;;4.20;;
67816;SDS011;54614;47.576;7.524;2024-01-10T04:59:32;5.13;;;3.93;;
67816;SDS011;54614;47.576;7.524;2024-01-10T05:01:58;5.33;;;4.17;;
67816;SDS011;54614;47.576;7.524;2024-01-10T05:04:24;5.70;;;4.30;;
67816;SDS011;54614;47.576;7.524;2024-01-10T05:06:50;6.90;;;4.10;;
67816;SDS011;54614;47.576;7.524;2024-01-10T05:09:16;6.10;;;4.17;;
67816;SDS011;54614;47.576;7.524;2024-01-10T05:11:42;7.53;;;4.33;;
67816;SDS011;54614;47.576;7.524;2024-01-10T05:14:12;9.73;;;4.43;;
67816;SDS011;54614;47.576;7.524;2024-01-10T05:16:37;6.30;;;4.13;;
67816;SDS011;54614;47.576;7.524;2024-01-10T05:19:03;5.23;;;3.97;;
67816;SDS011;54614;47.576;7.524;2024-01-10T05:21:30;5.57;;;4.07;;
67816;SDS011;54614;47.576;7.524;2024-01-10T05:23:57;8.67;;;4.30;;
67816;SDS011;54614;47.576;7.524;2024-01-10T05:26:23;7.80;;;4.67;;
67816;SDS011;54614;47.576;7.524;2024-01-10T05:28:49;8.07;;;4.43;;
67816;SDS011;54614;47.576;7.524;2024-01-10T05:31:15;7.70;;;4.67;;
67816;SDS011;54614;47.576;7.524;2024-01-10T05:33:41;7.07;;;4.63;;
67816;SDS011;54614;47.576;7.524;2024-01-10T05:36:08;6.80;;;4.73;;
67816;SDS011;54614;47.576;7.524;2024-01-10T05:38:37;7.00;;;4.27;;
67816;SDS011;54614;47.576;7.524;2024-01-10T05:41:04;7.07;;;4.47;;
67816;SDS011;54614;47.576;7.524;2024-01-10T05:43:30;8.57;;;4.87;;
67816;SDS011;54614;47.576;7.524;2024-01-10T05:45:56;8.73;;;4.47;;
67816;SDS011;54614;47.576;7.524;2024-01-10T05:48:23;7.47;;;4.57;;
67816;SDS011;54614;47.576;7.524;2024-01-10T05:50:49;7.90;;;4.97;;
67816;SDS011;54614;47.576;7.524;2024-01-10T05:53:16;8.93;;;5.13;;
67816;SDS011;54614;47.576;7.524;2024-01-10T05:55:42;8.23;;;4.90;;
67816;SDS011;54614;47.576;7.524;2024-01-10T05:58:09;6.00;;;4.53;;
67816;SDS011;54614;47.576;7.524;2024-01-10T06:00:36;6.57;;;4.60;;
67816;SDS011;54614;47.576;7.524;2024-01-10T06:03:02;7.13;;;4.30;;
67816;SDS011;54614;47.576;7.524;2024-01-10T06:05:29;6.40;;;4.43;;
67816;SDS011;54614;47.576;7.524;2024-01-10T06:07:56;6.63;;;4.37;;
67816;SDS011;54614;47.576;7.524;2024-01-10T06:10:22;6.57;;;4.50;;
67816;SDS011;54614;47.576;7.524;2024-01-10T06:12:48;7.50;;;4.77;;
67816;SDS011;54614;47.576;7.524;2024-01-10T06:15:14;12.80;;;4.60;;
67816;SDS011;54614;47.576;7.524;2024-01-10T06:17:40;7.47;;;4.77;;
67816;SDS011;54614;47.576;7.524;2024-01-10T06:20:06;6.40;;;4.40;;
67816;SDS011;54614;47.576;7.524;2024-01-10T06:22:33;6.03;;;4.50;;
67816;SDS011;54614;47.576;7.524;2024-01-10T06:24:59;7.33;;;4.63;;
67816;SDS011;54614;47.576;7.524;2024-01-10T06:27:25;8.53;;;4.70;;
67816;SDS011;54614;47.576;7.524;2024-01-10T06:29:50;7.03;;;4.63;;
67816;SDS011;54614;47.576;7.524;2024-01-10T06:32:16;7.10;;;4.80;;
67816;SDS011;54614;47.576;7.524;2024-01-10T06:34:42;8.63;;;4.60;;
67816;SDS011;54614;47.576;7.524;2024-01-10T06:37:08;8.10;;;4.13;;
67816;SDS011;54614;47.576;7.524;2024-01-10T06:39:34;8.27;;;4.23;;
67816;SDS011;54614;47.576;7.524;2024-01-10T06:41:59;8.00;;;4.50;;
67816;SDS011;54614;47.576;7.524;2024-01-10T06:44:25;5.93;;;4.50;;
67816;SDS011;54614;47.576;7.524;2024-01-10T06:46:53;8.30;;;4.47;;
67816;SDS011;54614;47.576;7.524;2024-01-10T06:49:19;5.80;;;4.00;;
67816;SDS011;54614;47.576;7.524;2024-01-10T06:51:44;12.23;;;4.77;;
67816;SDS011;54614;47.576;7.524;2024-01-10T06:54:10;6.43;;;4.33;;
67816;SDS011;54614;47.576;7.524;2024-01-10T06:56:36;6.37;;;4.70;;
67816;SDS011;54614;47.576;7.524;2024-01-10T06:59:02;6.40;;;4.30;;
67816;SDS011;54614;47.576;7.524;2024-01-10T07:01:28;6.30;;;4.50;;
67816;SDS011;54614;47.576;7.524;2024-01-10T07:03:54;6.50;;;4.30;;
67816;SDS011;54614;47.576;7.524;2024-01-10T07:06:20;6.50;;;4.20;;
67816;SDS011;54614;47.576;7.524;2024-01-10T07:08:48;9.37;;;4.10;;
67816;SDS011;54614;47.576;7.524;2024-01-10T07:11:18;7.23;;;4.13;;
67816;SDS011;54614;47.576;7.524;2024-01-10T07:13:47;7.17;;;4.53;;
67816;SDS011;54614;47.576;7.524;2024-01-10T07:16:12;6.53;;;4.40;;
67816;SDS011;54614;47.576;7.524;2024-01-10T07:18:42;10.23;;;4.50;;
67816;SDS011;54614;47.576;7.524;2024-01-10T07:21:08;8.67;;;4.63;;
67816;SDS011;54614;47.576;7.524;2024-01-10T07:23:35;6.37;;;4.30;;
67816;SDS011;54614;47.576;7.524;2024-01-10T07:26:03;18.73;;;4.93;;
67816;SDS011;54614;47.576;7.524;2024-01-10T07:28:29;8.53;;;4.67;;
67816;SDS011;54614;47.576;7.524;2024-01-10T07:30:55;25.33;;;6.17;;
67816;SDS011;54614;47.576;7.524;2024-01-10T07:33:21;17.03;;;5.10;;
67816;SDS011;54614;47.576;7.524;2024-01-10T07:35:47;14.07;;;4.87;;
67816;SDS011;54614;47.576;7.524;2024-01-10T07:38:12;9.63;;;5.07;;
67816;SDS011;54614;47.576;7.524;2024-01-10T07:40:38;9.97;;;5.10;;
67816;SDS011;54614;47.576;7.524;2024-01-10T07:43:04;7.47;;;4.50;;
67816;SDS011;54614;47.576;7.524;2024-01-10T07:45:29;9.13;;;4.90;;
67816;SDS011;54614;47.576;7.524;2024-01-10T07:47:55;12.83;;;4.87;;
67816;SDS011;54614;47.576;7.524;2024-01-10T07:50:21;14.00;;;4.93;;
67816;SDS011;54614;47.576;7.524;2024-01-10T07:52:52;13.57;;;4.80;;
67816;SDS011;54614;47.576;7.524;2024-01-10T07:55:17;10.07;;;5.07;;
67816;SDS011;54614;47.576;7.524;2024-01-10T07:57:43;9.60;;;5.17;;
67816;SDS011;54614;47.576;7.524;2024-01-10T08:00:09;12.63;;;5.40;;
67816;SDS011;54614;47.576;7.524;2024-01-10T08:02:35;12.30;;;5.53;;
67816;SDS011;54614;47.576;7.524;2024-01-10T08:05:02;10.63;;;5.80;;
67816;SDS011;54614;47.576;7.524;2024-01-10T08:07:38;11.97;;;6.00;;
67816;SDS011;54614;47.576;7.524;2024-01-10T08:10:07;12.97;;;6.10;;
67816;SDS011;54614;47.576;7.524;2024-01-10T08:12:35;20.20;;;5.70;;
67816;SDS011;54614;47.576;7.524;2024-01-10T08:15:03;10.17;;;6.00;;
67816;SDS011;54614;47.576;7.524;2024-01-10T08:17:31;15.53;;;6.37;;
67816;SDS011;54614;47.576;7.524;2024-01-10T08:19:58;14.17;;;6.40;;
67816;SDS011;54614;47.576;7.524;2024-01-10T08:22:25;12.20;;;6.80;;
67816;SDS011;54614;47.576;7.524;2024-01-10T08:24:51;13.43;;;6.80;;
67816;SDS011;54614;47.576;7.524;2024-01-10T08:27:17;14.23;;;6.50;;
67816;SDS011;54614;47.576;7.524;2024-01-10T08:29:43;12.60;;;6.00;;
67816;SDS011;54614;47.576;7.524;2024-01-10T08:32:09;11.40;;;6.43;;
67816;SDS011;54614;47.576;7.524;2024-01-10T08:34:36;13.73;;;6.67;;
67816;SDS011;54614;47.576;7.524;2024-01-10T08:37:01;9.40;;;5.93;;
67816;SDS011;54614;47.576;7.524;2024-01-10T08:39:28;11.20;;;5.77;;
67816;SDS011;54614;47.576;7.524;2024-01-10T08:41:55;13.70;;;5.73;;
67816;SDS011;54614;47.576;7.524;2024-01-10T08:44:22;10.10;;;5.73;;
67816;SDS011;54614;47.576;7.524;2024-01-10T08:46:48;10.00;;;5.70;;
67816;SDS011;54614;47.576;7.524;2024-01-10T08:49:16;12.00;;;5.90;;
67816;SDS011;54614;47.576;7.524;2024-01-10T08:51:42;11.63;;;6.13;;
67816;SDS011;54614;47.576;7.524;2024-01-10T08:54:09;10.97;;;6.70;;
67816;SDS011;54614;47.576;7.524;2024-01-10T08:56:37;14.53;;;7.03;;
67816;SDS011;54614;47.576;7.524;2024-01-10T08:59:03;13.80;;;7.20;;
67816;SDS011;54614;47.576;7.524;2024-01-10T09:01:29;13.03;;;7.20;;
67816;SDS011;54614;47.576;7.524;2024-01-10T09:03:55;10.63;;;7.33;;
67816;SDS011;54614;47.576;7.524;2024-01-10T09:06:20;11.93;;;6.77;;
67816;SDS011;54614;47.576;7.524;2024-01-10T09:08:46;10.30;;;6.70;;
67816;SDS011;54614;47.576;7.524;2024-01-10T09:11:12;11.77;;;7.13;;
67816;SDS011;54614;47.576;7.524;2024-01-10T09:13:38;11.30;;;7.40;;
67816;SDS011;54614;47.576;7.524;2024-01-10T09:16:05;9.83;;;6.83;;
67816;SDS011;54614;47.576;7.524;2024-01-10T09:18:31;11.17;;;6.70;;
67816;SDS011;54614;47.576;7.524;2024-01-10T09:20:57;11.73;;;6.53;;
67816;SDS011;54614;47.576;7.524;2024-01-10T09:23:23;10.37;;;6.70;;
67816;SDS011;54614;47.576;7.524;2024-01-10T09:25:48;9.73;;;6.27;;
67816;SDS011;54614;47.576;7.524;2024-01-10T09:28:14;12.77;;;6.77;;
67816;SDS011;54614;47.576;7.524;2024-01-10T09:30:40;9.57;;;6.70;;
67816;SDS011;54614;47.576;7.524;2024-01-10T09:33:06;9.63;;;6.63;;
67816;SDS011;54614;47.576;7.524;2024-01-10T09:35:31;10.50;;;6.40;;
67816;SDS011;54614;47.576;7.524;2024-01-10T09:37:57;9.30;;;6.00;;
67816;SDS011;54614;47.576;7.524;2024-01-10T09:40:23;10.43;;;6.23;;
67816;SDS011;54614;47.576;7.524;2024-01-10T09:42:52;8.37;;;6.10;;
67816;SDS011;54614;47.576;7.524;2024-01-10T09:45:21;10.17;;;6.10;;
67816;SDS011;54614;47.576;7.524;2024-01-10T09:47:50;8.70;;;6.00;;
67816;SDS011;54614;47.576;7.524;2024-01-10T09:50:20;9.23;;;5.87;;
67816;SDS011;54614;47.576;7.524;2024-01-10T09:52:58;9.70;;;6.43;;
67816;SDS011;54614;47.576;7.524;2024-01-10T09:55:34;9.20;;;6.17;;
67816;SDS011;54614;47.576;7.524;2024-01-10T09:58:03;10.40;;;6.37;;
67816;SDS011;54614;47.576;7.524;2024-01-10T10:00:31;9.60;;;6.30;;
67816;SDS011;54614;47.576;7.524;2024-01-10T10:03:00;8.23;;;5.83;;
67816;SDS011;54614;47.576;7.524;2024-01-10T10:05:29;9.13;;;6.17;;
67816;SDS011;54614;47.576;7.524;2024-01-10T10:07:56;9.10;;;5.83;;
67816;SDS011;54614;47.576;7.524;2024-01-10T10:10:23;11.07;;;6.00;;
67816;SDS011;54614;47.576;7.524;2024-01-10T10:12:50;9.07;;;5.60;;
67816;SDS011;54614;47.576;7.524;2024-01-10T10:15:24;10.17;;;5.80;;
67816;SDS011;54614;47.576;7.524;2024-01-10T10:17:53;9.37;;;5.87;;
67816;SDS011;54614;47.576;7.524;2024-01-10T10:20:26;7.80;;;5.43;;
67816;SDS011;54614;47.576;7.524;2024-01-10T10:25:31;9.17;;;5.63;;
67816;SDS011;54614;47.576;7.524;2024-01-10T10:28:00;11.27;;;6.30;;
67816;SDS011;54614;47.576;7.524;2024-01-10T10:30:28;9.33;;;6.17;;
67816;SDS011;54614;47.576;7.524;2024-01-10T10:32:56;8.87;;;6.07;;
67816;SDS011;54614;47.576;7.524;2024-01-10T10:35:21;9.70;;;6.33;;
67816;SDS011;54614;47.576;7.524;2024-01-10T10:37:49;8.97;;;6.07;;
67816;SDS011;54614;47.576;7.524;2024-01-10T10:40:16;11.43;;;5.93;;
67816;SDS011;54614;47.576;7.524;2024-01-10T10:42:54;7.90;;;5.63;;
67816;SDS011;54614;47.576;7.524;2024-01-10T10:45:21;10.13;;;5.70;;
67816;SDS011;54614;47.576;7.524;2024-01-10T10:47:58;8.13;;;5.53;;
67816;SDS011;54614;47.576;7.524;2024-01-10T10:50:27;8.63;;;5.80;;
67816;SDS011;54614;47.576;7.524;2024-01-10T10:52:58;8.73;;;5.80;;
67816;SDS011;54614;47.576;7.524;2024-01-10T10:55:27;12.17;;;5.83;;
67816;SDS011;54614;47.576;7.524;2024-01-10T10:57:55;7.77;;;5.40;;
67816;SDS011;54614;47.576;7.524;2024-01-10T11:00:23;9.03;;;5.47;;
67816;SDS011;54614;47.576;7.524;2024-01-10T11:02:55;7.63;;;5.40;;
67816;SDS011;54614;47.576;7.524;2024-01-10T11:05:24;9.77;;;5.53;;
67816;SDS011;54614;47.576;7.524;2024-01-10T11:07:53;10.80;;;5.40;;
67816;SDS011;54614;47.576;7.524;2024-01-10T11:10:27;8.77;;;5.50;;
67816;SDS011;54614;47.576;7.524;2024-01-10T11:13:03;7.67;;;5.47;;
67816;SDS011;54614;47.576;7.524;2024-01-10T11:16:43;7.93;;;5.67;;
67816;SDS011;54614;47.576;7.524;2024-01-10T11:24:44;11.30;;;7.03;;
67816;SDS011;54614;47.576;7.524;2024-01-10T11:27:13;13.40;;;6.47;;
67816;SDS011;54614;47.576;7.524;2024-01-10T11:29:41;10.90;;;6.90;;
67816;SDS011;54614;47.576;7.524;2024-01-10T11:32:16;13.57;;;7.07;;
67816;SDS011;54614;47.576;7.524;2024-01-10T11:37:20;10.50;;;7.27;;
67816;SDS011;54614;47.576;7.524;2024-01-10T11:39:46;14.67;;;8.23;;
67816;SDS011;54614;47.576;7.524;2024-01-10T11:42:11;42.40;;;24.10;;
67816;SDS011;54614;47.576;7.524;2024-01-10T11:44:47;47.87;;;25.43;;
67816;SDS011;54614;47.576;7.524;2024-01-10T11:47:15;49.47;;;26.33;;
67816;SDS011;54614;47.576;7.524;2024-01-10T11:49:41;51.73;;;27.47;;
67816;SDS011;54614;47.576;7.524;2024-01-10T11:52:21;45.53;;;23.53;;
67816;SDS011;54614;47.576;7.524;2024-01-10T11:54:50;48.57;;;25.23;;
67816;SDS011;54614;47.576;7.524;2024-01-10T11:57:20;44.70;;;23.40;;
67816;SDS011;54614;47.576;7.524;2024-01-10T11:59:51;51.87;;;25.03;;
67816;SDS011;54614;47.576;7.524;2024-01-10T12:02:21;47.17;;;24.67;;
67816;SDS011;54614;47.576;7.524;2024-01-10T12:04:52;48.03;;;24.13;;
67816;SDS011;54614;47.576;7.524;2024-01-10T12:07:19;44.07;;;23.80;;
67816;SDS011;54614;47.576;7.524;2024-01-10T12:09:45;46.63;;;22.33;;
67816;SDS011;54614;47.576;7.524;2024-01-10T12:12:12;42.30;;;23.00;;
67816;SDS011;54614;47.576;7.524;2024-01-10T12:14:39;39.67;;;21.73;;
67816;SDS011;54614;47.576;7.524;2024-01-10T12:17:06;41.53;;;21.27;;
67816;SDS011;54614;47.576;7.524;2024-01-10T12:19:35;36.50;;;19.90;;
67816;SDS011;54614;47.576;7.524;2024-01-10T12:22:02;35.30;;;19.90;;
67816;SDS011;54614;47.576;7.524;2024-01-10T12:24:30;35.30;;;18.77;;
67816;SDS011;54614;47.576;7.524;2024-01-10T12:26:57;35.07;;;18.50;;
67816;SDS011;54614;47.576;7.524;2024-01-10T12:29:23;33.50;;;18.50;;
67816;SDS011;54614;47.576;7.524;2024-01-10T12:31:50;34.40;;;18.50;;
67816;SDS011;54614;47.576;7.524;2024-01-10T12:34:16;33.43;;;17.17;;
67816;SDS011;54614;47.576;7.524;2024-01-10T12:36:42;33.50;;;16.90;;
67816;SDS011;54614;47.576;7.524;2024-01-10T12:39:09;32.27;;;17.53;;
67816;SDS011;54614;47.576;7.524;2024-01-10T12:41:36;31.20;;;16.70;;
67816;SDS011;54614;47.576;7.524;2024-01-10T12:44:03;38.70;;;17.97;;
67816;SDS011;54614;47.576;7.524;2024-01-10T12:46:31;35.50;;;16.40;;
67816;SDS011;54614;47.576;7.524;2024-01-10T12:49:01;30.30;;;16.50;;
67816;SDS011;54614;47.576;7.524;2024-01-10T12:51:32;30.93;;;15.93;;
67816;SDS011;54614;47.576;7.524;2024-01-10T12:54:01;26.47;;;15.10;;
67816;SDS011;54614;47.576;7.524;2024-01-10T12:56:30;27.77;;;14.13;;
67816;SDS011;54614;47.576;7.524;2024-01-10T12:58:57;26.43;;;14.03;;
67816;SDS011;54614;47.576;7.524;2024-01-10T13:01:23;26.97;;;14.23;;
67816;SDS011;54614;47.576;7.524;2024-01-10T13:03:50;27.50;;;14.07;;
67816;SDS011;54614;47.576;7.524;2024-01-10T13:06:17;25.27;;;13.70;;
67816;SDS011;54614;47.576;7.524;2024-01-10T13:08:47;26.00;;;13.50;;
67816;SDS011;54614;47.576;7.524;2024-01-10T13:11:14;19.70;;;12.70;;
67816;SDS011;54614;47.576;7.524;2024-01-10T13:13:40;20.23;;;12.60;;
67816;SDS011;54614;47.576;7.524;2024-01-10T13:16:08;24.17;;;12.97;;
67816;SDS011;54614;47.576;7.524;2024-01-10T13:18:37;24.53;;;12.27;;
67816;SDS011;54614;47.576;7.524;2024-01-10T13:21:04;21.77;;;11.80;;
67816;SDS011;54614;47.576;7.524;2024-01-10T13:23:30;27.20;;;12.30;;
67816;SDS011;54614;47.576;7.524;2024-01-10T13:25:56;22.37;;;12.10;;
67816;SDS011;54614;47.576;7.524;2024-01-10T13:28:21;20.03;;;11.30;;
67816;SDS011;54614;47.576;7.524;2024-01-10T13:30:47;20.63;;;11.67;;
67816;SDS011;54614;47.576;7.524;2024-01-10T13:33:13;21.57;;;10.80;;
67816;SDS011;54614;47.576;7.524;2024-01-10T13:35:39;20.27;;;11.10;;
67816;SDS011;54614;47.576;7.524;2024-01-10T13:38:05;18.30;;;10.63;;
67816;SDS011;54614;47.576;7.524;2024-01-10T13:40:31;17.87;;;10.63;;
67816;SDS011;54614;47.576;7.524;2024-01-10T13:42:59;19.60;;;10.90;;
67816;SDS011;54614;47.576;7.524;2024-01-10T13:45:27;18.17;;;10.97;;
67816;SDS011;54614;47.576;7.524;2024-01-10T13:47:54;18.53;;;10.53;;
67816;SDS011;54614;47.576;7.524;2024-01-10T13:50:20;16.47;;;10.07;;
67816;SDS011;54614;47.576;7.524;2024-01-10T13:52:45;18.50;;;10.60;;
67816;SDS011;54614;47.576;7.524;2024-01-10T13:55:11;20.83;;;10.13;;
67816;SDS011;54614;47.576;7.524;2024-01-10T13:57:37;17.03;;;9.63;;
67816;SDS011;54614;47.576;7.524;2024-01-10T14:00:03;18.03;;;9.73;;
67816;SDS011;54614;47.576;7.524;2024-01-10T14:02:34;16.50;;;9.40;;
67816;SDS011;54614;47.576;7.524;2024-01-10T14:05:00;15.33;;;9.17;;
67816;SDS011;54614;47.576;7.524;2024-01-10T14:07:30;14.93;;;9.50;;
67816;SDS011;54614;47.576;7.524;2024-01-10T14:09:58;15.10;;;9.13;;
67816;SDS011;54614;47.576;7.524;2024-01-10T14:12:23;16.80;;;9.17;;
67816;SDS011;54614;47.576;7.524;2024-01-10T14:14:49;15.80;;;8.77;;
67816;SDS011;54614;47.576;7.524;2024-01-10T14:17:15;13.83;;;8.90;;
67816;SDS011;54614;47.576;7.524;2024-01-10T14:19:41;14.50;;;8.90;;
67816;SDS011;54614;47.576;7.524;2024-01-10T14:22:09;14.43;;;9.40;;
67816;SDS011;54614;47.576;7.524;2024-01-10T14:24:35;15.13;;;8.73;;
67816;SDS011;54614;47.576;7.524;2024-01-10T14:27:01;14.53;;;8.63;;
67816;SDS011;54614;47.576;7.524;2024-01-10T14:29:26;15.50;;;8.97;;
67816;SDS011;54614;47.576;7.524;2024-01-10T14:31:52;14.70;;;9.10;;
67816;SDS011;54614;47.576;7.524;2024-01-10T14:34:18;17.60;;;8.83;;
67816;SDS011;54614;47.576;7.524;2024-01-10T14:36:43;13.23;;;8.63;;
67816;SDS011;54614;47.576;7.524;2024-01-10T14:39:09;15.70;;;8.50;;
67816;SDS011;54614;47.576;7.524;2024-01-10T14:41:38;14.80;;;8.57;;
67816;SDS011;54614;47.576;7.524;2024-01-10T14:44:05;13.97;;;8.10;;
67816;SDS011;54614;47.576;7.524;2024-01-10T14:46:31;13.17;;;8.50;;
67816;SDS011;54614;47.576;7.524;2024-01-10T14:48:57;12.67;;;7.93;;
67816;SDS011;54614;47.576;7.524;2024-01-10T14:51:22;13.73;;;8.67;;